Time;durP1;ratioP1;P1;durP2;ratioP2;P2;SDS_P1;SDS_P2;PMS_P1;PMS_P2;Temp;Humidity;BMP_temperature;BMP_pressure;BME280_temperature;BME280_humidity;BME280_pressure;Samples;Min_cycle;Max_cycle;Signal;HPM_P1;HPM_P2
2023/11/06 00:00:33;;;;;;;2.13;1.10;;;10.20;99.90;;;;;;5035456;28;20206;-72
2023/11/06 00:02:59;;;;;;;3.43;1.40;;;10.20;99.90;;;;;;5027969;28;20184;-73
2023/11/06 00:05:25;;;;;;;3.17;1.20;;;10.30;99.90;;;;;;5034986;28;20429;-73
2023/11/06 00:07:50;;;;;;;4.93;1.27;;;10.40;99.90;;;;;;5035392;28;20493;-73
2023/11/06 00:10:17;;;;;;;3.37;1.47;;;10.50;99.90;;;;;;5035456;28;20192;-73
2023/11/06 00:12:43;;;;;;;2.13;1.20;;;10.50;99.90;;;;;;5034126;28;20188;-72
2023/11/06 00:15:09;;;;;;;4.20;1.47;;;10.40;99.90;;;;;;5015342;28;20802;-71
2023/11/06 00:17:36;;;;;;;3.47;1.37;;;10.30;99.90;;;;;;5015294;28;20399;-72
2023/11/06 00:20:03;;;;;;;2.53;0.97;;;10.40;99.90;;;;;;5014985;28;20401;-73
2023/11/06 00:22:30;;;;;;;1.83;1.10;;;10.50;99.90;;;;;;5015401;28;20411;-72
2023/11/06 00:24:56;;;;;;;4.13;1.63;;;10.40;99.90;;;;;;5033774;28;20503;-72
2023/11/06 00:27:25;;;;;;;2.67;1.40;;;10.30;99.90;;;;;;5034988;28;20496;-72
2023/11/06 00:29:51;;;;;;;3.30;1.30;;;10.40;99.90;;;;;;5034666;28;20862;-73
2023/11/06 00:32:16;;;;;;;2.47;1.40;;;10.30;99.90;;;;;;5034605;28;20467;-72
2023/11/06 00:34:42;;;;;;;2.50;1.37;;;10.30;99.90;;;;;;5018141;28;20501;-72
2023/11/06 00:37:08;;;;;;;1.90;1.10;;;10.30;99.90;;;;;;5014675;28;20433;-71
2023/11/06 00:39:35;;;;;;;2.60;1.37;;;10.30;99.90;;;;;;5014635;28;20225;-74
2023/11/06 00:42:02;;;;;;;2.47;1.27;;;10.20;99.90;;;;;;5014934;28;20233;-72
2023/11/06 00:44:28;;;;;;;1.73;1.40;;;10.20;99.90;;;;;;5029208;28;20444;-72
2023/11/06 00:46:54;;;;;;;2.37;1.40;;;10.20;99.90;;;;;;5034466;28;20468;-74
2023/11/06 00:49:20;;;;;;;3.83;1.47;;;10.20;99.90;;;;;;5034166;28;20197;-73
2023/11/06 00:51:46;;;;;;;4.87;1.67;;;10.10;99.90;;;;;;5034296;28;20197;-73
2023/11/06 00:54:14;;;;;;;1.93;1.23;;;10.10;99.90;;;;;;5021689;28;20433;-72
2023/11/06 00:56:40;;;;;;;3.17;1.67;;;10.10;99.90;;;;;;5014228;28;20430;-73
2023/11/06 00:59:06;;;;;;;2.40;1.00;;;10.20;99.90;;;;;;5016877;28;20758;-73
2023/11/06 01:01:31;;;;;;;2.30;1.23;;;10.20;99.90;;;;;;5014317;28;20172;-73
2023/11/06 01:03:57;;;;;;;1.93;1.00;;;10.00;99.90;;;;;;5024448;28;20495;-73
2023/11/06 01:06:24;;;;;;;3.60;1.50;;;9.90;99.90;;;;;;5034128;28;20193;-72
2023/11/06 01:08:49;;;;;;;2.20;1.33;;;9.90;99.90;;;;;;5033942;28;20816;-72
2023/11/06 01:11:15;;;;;;;4.53;1.33;;;9.90;99.90;;;;;;5034475;28;20535;-72
2023/11/06 01:13:41;;;;;;;4.50;1.20;;;10.00;99.90;;;;;;5026028;28;20205;-72
2023/11/06 01:16:07;;;;;;;1.77;1.33;;;10.00;99.90;;;;;;5014004;28;20456;-71
2023/11/06 01:18:33;;;;;;;3.07;1.47;;;9.90;99.90;;;;;;5012743;28;20167;-72
2023/11/06 01:20:58;;;;;;;4.00;1.27;;;9.90;99.90;;;;;;5013923;28;20421;-72
2023/11/06 01:23:24;;;;;;;4.17;1.30;;;9.80;99.90;;;;;;5019280;28;20180;-72
2023/11/06 01:25:50;;;;;;;3.03;1.50;;;9.80;99.90;;;;;;5033368;28;20207;-72
2023/11/06 01:28:16;;;;;;;3.17;1.43;;;9.80;99.90;;;;;;5033630;28;20403;-72
2023/11/06 01:30:41;;;;;;;3.00;1.30;;;10.00;99.90;;;;;;5033777;28;20191;-72
2023/11/06 01:33:07;;;;;;;3.63;1.63;;;9.90;99.90;;;;;;5030650;28;20174;-72
2023/11/06 01:35:32;;;;;;;2.73;2.20;;;9.90;99.90;;;;;;5013736;28;20195;-73
2023/11/06 01:38:00;;;;;;;8.57;1.80;;;9.90;99.90;;;;;;5014008;28;20201;-72
2023/11/06 01:40:32;;;;;;;1.60;1.13;;;10.00;99.90;;;;;;5013578;28;20200;-72
2023/11/06 01:43:05;;;;;;;5.40;1.63;;;10.10;99.90;;;;;;5015141;28;20935;-72
2023/11/06 01:45:32;;;;;;;4.93;1.50;;;10.00;99.90;;;;;;5033494;28;20419;-73
2023/11/06 01:47:58;;;;;;;4.90;1.50;;;10.00;99.90;;;;;;5033409;28;20438;-73
2023/11/06 01:50:24;;;;;;;1.87;1.00;;;10.00;99.90;;;;;;5033242;28;20444;-72
2023/11/06 01:52:49;;;;;;;5.47;1.60;;;9.90;99.90;;;;;;5033253;28;20419;-73
2023/11/06 01:55:15;;;;;;;3.73;1.60;;;9.80;99.90;;;;;;5013509;28;20223;-72
2023/11/06 01:57:41;;;;;;;2.40;1.43;;;9.90;99.90;;;;;;5013495;28;20250;-72
2023/11/06 02:00:08;;;;;;;3.27;1.10;;;9.90;99.90;;;;;;5013465;28;20161;-71
2023/11/06 02:02:34;;;;;;;2.90;1.07;;;10.10;99.90;;;;;;5013604;28;20244;-73
2023/11/06 02:05:00;;;;;;;6.60;1.20;;;9.90;99.90;;;;;;5016849;28;20442;-74
2023/11/06 02:07:27;;;;;;;5.00;1.27;;;9.90;99.90;;;;;;5013251;28;20171;-72
2023/11/06 02:09:52;;;;;;;3.90;1.30;;;10.00;99.90;;;;;;5029171;28;20783;-73
2023/11/06 02:12:18;;;;;;;5.33;1.43;;;9.90;99.90;;;;;;5031684;28;20420;-72
2023/11/06 02:14:55;;;;;;;2.47;1.10;;;9.90;99.90;;;;;;5017999;28;20196;-73
2023/11/06 02:17:21;;;;;;;4.63;1.47;;;9.90;99.90;;;;;;5013122;28;20172;-72
2023/11/06 02:19:48;;;;;;;2.40;0.93;;;9.90;99.90;;;;;;5013280;28;20956;-72
2023/11/06 02:22:18;;;;;;;2.20;1.23;;;10.10;99.90;;;;;;5013464;28;20415;-73
2023/11/06 02:24:44;;;;;;;1.93;1.10;;;10.20;99.90;;;;;;5028925;28;20420;-73
2023/11/06 02:27:10;;;;;;;2.60;1.30;;;10.20;99.90;;;;;;5062185;22;20498;-73
2023/11/06 02:29:35;;;;;;;3.73;1.20;;;10.20;99.90;;;;;;5053286;28;20918;-73
2023/11/06 02:32:02;;;;;;;2.50;0.80;;;10.10;99.90;;;;;;5052883;28;20223;-73
2023/11/06 02:34:28;;;;;;;3.53;1.50;;;10.10;99.90;;;;;;5052780;28;20163;-73
2023/11/06 02:36:54;;;;;;;3.03;1.17;;;10.20;99.90;;;;;;5052822;28;20432;-73
2023/11/06 02:39:19;;;;;;;2.27;1.00;;;10.00;99.90;;;;;;5052978;28;20568;-73
2023/11/06 02:41:45;;;;;;;2.20;1.03;;;10.00;99.90;;;;;;5034918;28;20221;-73
2023/11/06 02:44:11;;;;;;;3.50;1.33;;;10.10;99.90;;;;;;5051336;28;20414;-73
2023/11/06 02:46:37;;;;;;;3.07;1.30;;;10.10;99.90;;;;;;5052521;28;20429;-73
2023/11/06 02:49:03;;;;;;;1.87;0.80;;;10.00;99.90;;;;;;5053259;28;20168;-73
2023/11/06 02:51:28;;;;;;;2.67;0.80;;;9.90;99.90;;;;;;5052097;28;20520;-73
2023/11/06 02:53:55;;;;;;;3.53;1.00;;;9.80;99.90;;;;;;5055509;28;20174;-73
2023/11/06 02:56:21;;;;;;;1.10;0.80;;;9.80;99.90;;;;;;5054974;28;20182;-73
2023/11/06 02:58:46;;;;;;;1.07;0.70;;;9.80;99.90;;;;;;5055142;28;20408;-73
2023/11/06 03:01:12;;;;;;;3.93;1.30;;;9.90;99.90;;;;;;5055044;28;20174;-73
2023/11/06 03:03:37;;;;;;;2.60;1.00;;;10.00;99.90;;;;;;5055171;28;20270;-73
2023/11/06 03:06:05;;;;;;;3.63;0.90;;;9.90;99.90;;;;;;5056342;28;20191;-73
2023/11/06 03:08:30;;;;;;;4.20;0.80;;;9.80;99.90;;;;;;5056210;28;20198;-73
2023/11/06 03:10:56;;;;;;;4.73;1.07;;;9.90;99.90;;;;;;5056582;28;20479;-73
2023/11/06 03:13:21;;;;;;;1.93;1.03;;;9.90;99.90;;;;;;5056266;28;20158;-73
2023/11/06 03:15:47;;;;;;;2.10;1.00;;;10.00;99.90;;;;;;5056027;28;20188;-73
2023/11/06 03:18:13;;;;;;;1.20;0.77;;;9.80;99.90;;;;;;5056416;28;20247;-73
2023/11/06 03:20:39;;;;;;;3.73;0.90;;;9.80;99.90;;;;;;5056487;28;20189;-73
2023/11/06 03:23:05;;;;;;;3.33;1.40;;;9.70;99.90;;;;;;5056072;28;20644;-73
2023/11/06 03:25:31;;;;;;;3.20;1.00;;;9.80;99.90;;;;;;5056037;28;20433;-73
2023/11/06 03:27:57;;;;;;;2.20;1.00;;;9.80;99.90;;;;;;5055960;28;20490;-73
2023/11/06 03:30:22;;;;;;;2.60;1.37;;;9.90;99.90;;;;;;5055850;28;20680;-73
2023/11/06 03:32:48;;;;;;;3.37;1.10;;;9.80;99.90;;;;;;5055872;28;20168;-73
2023/11/06 03:35:13;;;;;;;4.00;1.00;;;9.90;99.90;;;;;;5055934;28;20172;-73
2023/11/06 03:37:39;;;;;;;1.80;0.70;;;9.90;99.90;;;;;;5055709;28;20659;-73
2023/11/06 03:40:06;;;;;;;3.03;1.13;;;10.00;99.90;;;;;;5055670;28;20242;-73
2023/11/06 03:42:31;;;;;;;2.37;1.20;;;10.00;99.90;;;;;;5054351;28;20584;-73
2023/11/06 03:44:57;;;;;;;2.83;1.10;;;10.00;99.90;;;;;;5055687;28;20417;-73
2023/11/06 03:47:23;;;;;;;1.87;0.90;;;10.10;99.90;;;;;;5055283;28;20183;-73
2023/11/06 03:49:48;;;;;;;4.70;1.40;;;10.20;99.90;;;;;;5055348;28;20173;-73
2023/11/06 03:52:14;;;;;;;2.37;0.97;;;10.10;99.90;;;;;;5055608;28;20198;-73
2023/11/06 03:54:40;;;;;;;4.63;1.27;;;10.00;99.90;;;;;;5055294;28;20166;-73
2023/11/06 03:57:06;;;;;;;3.00;1.30;;;10.20;99.90;;;;;;5055182;28;20179;-73
2023/11/06 03:59:32;;;;;;;2.00;0.93;;;10.30;99.90;;;;;;5055205;28;20397;-73
2023/11/06 04:01:57;;;;;;;4.37;0.80;;;10.30;99.90;;;;;;5055209;28;20650;-72
2023/11/06 04:04:23;;;;;;;5.53;1.40;;;10.40;99.90;;;;;;5054961;28;20411;-73
2023/11/06 04:06:49;;;;;;;2.10;0.90;;;10.40;99.90;;;;;;5054321;28;20204;-73
2023/11/06 04:09:14;;;;;;;3.53;1.07;;;10.40;99.90;;;;;;5055036;28;20261;-73
2023/11/06 04:11:40;;;;;;;5.23;1.40;;;10.30;99.90;;;;;;5055133;28;20332;-73
2023/11/06 04:14:06;;;;;;;5.27;1.30;;;10.30;99.90;;;;;;5054493;28;20239;-73
2023/11/06 04:16:32;;;;;;;4.43;1.00;;;10.40;99.90;;;;;;5054683;28;20927;-73
2023/11/06 04:18:59;;;;;;;2.13;1.00;;;10.40;99.90;;;;;;5054799;28;20410;-73
2023/11/06 04:21:26;;;;;;;2.60;1.30;;;10.40;99.90;;;;;;5055020;28;20408;-73
2023/11/06 04:23:51;;;;;;;2.87;1.17;;;10.50;99.90;;;;;;5054792;28;20412;-73
2023/11/06 04:26:17;;;;;;;2.30;0.93;;;10.70;99.90;;;;;;5054441;28;20433;-73
2023/11/06 04:28:43;;;;;;;1.67;0.90;;;10.60;99.90;;;;;;5053365;28;20595;-73
2023/11/06 04:31:08;;;;;;;3.60;1.20;;;10.60;99.90;;;;;;5054794;28;20198;-73
2023/11/06 04:33:34;;;;;;;1.93;0.87;;;10.80;99.90;;;;;;5054829;28;20168;-73
2023/11/06 04:35:59;;;;;;;2.30;1.10;;;10.80;99.90;;;;;;5054744;28;20189;-73
2023/11/06 04:38:25;;;;;;;5.50;1.13;;;10.80;99.90;;;;;;5054571;28;20163;-73
2023/11/06 04:40:51;;;;;;;4.83;1.00;;;10.80;99.90;;;;;;5054792;28;20177;-73
2023/11/06 04:43:17;;;;;;;1.87;0.80;;;10.70;99.90;;;;;;5054529;28;20169;-73
2023/11/06 04:45:42;;;;;;;2.47;1.03;;;10.80;99.90;;;;;;5054619;28;20568;-73
2023/11/06 04:48:08;;;;;;;2.07;0.90;;;10.70;99.90;;;;;;5054240;28;20401;-73
2023/11/06 04:50:34;;;;;;;3.77;1.30;;;10.60;99.90;;;;;;5054275;28;20680;-73
2023/11/06 04:53:00;;;;;;;2.13;1.20;;;10.50;99.90;;;;;;5053045;28;20174;-73
2023/11/06 04:55:26;;;;;;;2.83;1.03;;;10.50;99.90;;;;;;5054396;28;20194;-73
2023/11/06 04:57:52;;;;;;;7.67;1.30;;;10.40;99.90;;;;;;5052312;28;20429;-72
2023/11/06 05:00:18;;;;;;;2.63;1.03;;;10.40;99.90;;;;;;5052743;28;20168;-73
2023/11/06 05:02:44;;;;;;;4.30;1.00;;;10.20;99.90;;;;;;5054128;28;20413;-72
2023/11/06 05:05:09;;;;;;;3.90;1.07;;;10.20;99.90;;;;;;5054099;28;20397;-72
2023/11/06 05:07:36;;;;;;;3.00;1.20;;;10.00;99.90;;;;;;5054138;28;20190;-72
2023/11/06 05:10:05;;;;;;;3.27;1.30;;;9.90;99.90;;;;;;5053911;28;20176;-72
2023/11/06 05:12:31;;;;;;;3.53;1.10;;;9.80;99.90;;;;;;5054314;28;20418;-73
2023/11/06 05:14:57;;;;;;;3.13;1.20;;;9.80;99.90;;;;;;5053824;28;20394;-73
2023/11/06 05:17:22;;;;;;;4.07;1.13;;;9.70;99.90;;;;;;5053511;28;20516;-73
2023/11/06 05:19:48;;;;;;;6.40;1.40;;;9.60;99.90;;;;;;5052516;28;20207;-73
2023/11/06 05:22:13;;;;;;;4.07;1.13;;;9.60;99.90;;;;;;5053806;28;20169;-73
2023/11/06 05:24:41;;;;;;;5.17;1.40;;;9.70;99.90;;;;;;5053745;28;20245;-73
2023/11/06 05:27:07;;;;;;;7.97;1.30;;;9.70;99.90;;;;;;5053940;28;20217;-73
2023/11/06 05:29:33;;;;;;;4.33;1.40;;;9.70;99.90;;;;;;5054351;28;20413;-73
2023/11/06 05:31:59;;;;;;;2.10;0.90;;;9.70;99.90;;;;;;5053814;28;20445;-73
2023/11/06 05:34:24;;;;;;;2.10;0.90;;;9.80;99.90;;;;;;5054417;28;20412;-73
2023/11/06 05:36:50;;;;;;;2.93;1.00;;;9.80;99.90;;;;;;5053955;28;20428;-73
2023/11/06 05:39:15;;;;;;;2.53;1.30;;;9.90;99.90;;;;;;5054528;28;20564;-73
2023/11/06 05:41:46;;;;;;;2.50;0.90;;;9.90;99.90;;;;;;5053471;28;20651;-73
2023/11/06 05:44:13;;;;;;;5.27;1.23;;;9.90;99.90;;;;;;5054155;28;20162;-73
2023/11/06 05:46:39;;;;;;;1.13;0.80;;;9.80;99.90;;;;;;5054410;28;20429;-73
2023/11/06 05:49:04;;;;;;;1.50;1.00;;;9.90;99.90;;;;;;5063578;28;20738;-73
2023/11/06 05:51:30;;;;;;;2.30;1.40;;;9.90;99.90;;;;;;5064562;28;20210;-73
2023/11/06 05:53:56;;;;;;;1.40;0.90;;;9.90;99.90;;;;;;5065510;28;20173;-72
2023/11/06 05:56:21;;;;;;;2.00;1.07;;;9.80;99.90;;;;;;5063313;28;20190;-73
2023/11/06 05:58:48;;;;;;;2.33;1.33;;;9.80;99.90;;;;;;5058310;28;20167;-73
2023/11/06 06:01:13;;;;;;;4.50;1.33;;;9.80;99.90;;;;;;5053303;28;20220;-73
2023/11/06 06:03:39;;;;;;;2.20;1.80;;;9.80;99.90;;;;;;5061574;28;20407;-73
2023/11/06 06:06:05;;;;;;;1.33;1.17;;;9.90;99.90;;;;;;5068160;28;20611;-73
2023/11/06 06:08:31;;;;;;;2.80;1.77;;;9.80;99.90;;;;;;5066942;28;20492;-74
2023/11/06 06:10:57;;;;;;;3.47;0.87;;;9.70;99.90;;;;;;5064211;28;20199;-73
2023/11/06 06:13:22;;;;;;;2.30;0.70;;;9.80;99.90;;;;;;5054062;28;20172;-73
2023/11/06 06:15:48;;;;;;;2.53;0.70;;;9.90;99.90;;;;;;5053436;28;20212;-73
2023/11/06 06:18:13;;;;;;;1.60;1.00;;;10.00;99.90;;;;;;5053070;28;20187;-73
2023/11/06 06:20:39;;;;;;;0.80;0.70;;;10.00;99.90;;;;;;5053671;28;20206;-73
2023/11/06 06:23:05;;;;;;;2.40;0.70;;;9.90;99.90;;;;;;5052943;28;20167;-73
2023/11/06 06:25:30;;;;;;;4.43;1.20;;;9.70;99.90;;;;;;5053037;28;20170;-73
2023/11/06 06:27:56;;;;;;;2.17;0.90;;;9.60;99.90;;;;;;5055736;28;20181;-73
2023/11/06 06:30:21;;;;;;;2.20;0.90;;;9.60;99.90;;;;;;5057361;28;20194;-73
2023/11/06 06:32:47;;;;;;;1.67;0.90;;;9.70;99.90;;;;;;5057134;28;20176;-73
2023/11/06 06:35:12;;;;;;;4.40;1.20;;;9.70;99.90;;;;;;5056587;28;20168;-73
2023/11/06 06:37:38;;;;;;;4.97;1.10;;;9.70;99.90;;;;;;5055299;28;20274;-72
2023/11/06 06:40:07;;;;;;;1.73;1.07;;;9.70;99.90;;;;;;5055237;28;20171;-72
2023/11/06 06:42:34;;;;;;;5.17;1.10;;;9.80;99.90;;;;;;5056773;28;20167;-72
2023/11/06 06:45:00;;;;;;;1.67;0.83;;;9.70;99.90;;;;;;5056621;28;20932;-72
2023/11/06 06:47:25;;;;;;;3.00;1.10;;;9.70;99.90;;;;;;5056312;28;20460;-72
2023/11/06 06:49:51;;;;;;;3.30;1.80;;;9.80;99.90;;;;;;5056867;28;20167;-72
2023/11/06 06:52:17;;;;;;;3.80;1.10;;;9.70;99.90;;;;;;5057287;28;20199;-72
2023/11/06 06:54:42;;;;;;;1.97;0.80;;;9.70;99.90;;;;;;5057702;28;20411;-72
2023/11/06 06:57:09;;;;;;;1.77;0.90;;;9.80;99.90;;;;;;5056833;28;20252;-72
2023/11/06 06:59:35;;;;;;;2.50;0.87;;;9.70;99.90;;;;;;5056824;28;20165;-72
2023/11/06 07:02:01;;;;;;;1.40;1.00;;;9.70;99.90;;;;;;5057089;28;20990;-73
2023/11/06 07:04:27;;;;;;;1.07;0.93;;;9.80;99.90;;;;;;5056944;28;20413;-72
2023/11/06 07:06:52;;;;;;;2.00;0.60;;;9.70;99.90;;;;;;5057326;28;20192;-72
2023/11/06 07:09:18;;;;;;;1.83;1.20;;;9.80;99.90;;;;;;5056452;28;20407;-71
2023/11/06 07:11:44;;;;;;;3.27;0.80;;;9.80;99.90;;;;;;5056352;28;20187;-73
2023/11/06 07:14:09;;;;;;;2.13;0.60;;;9.90;99.90;;;;;;5056461;28;20161;-73
2023/11/06 07:16:35;;;;;;;3.23;0.90;;;9.80;99.90;;;;;;5056156;28;20669;-73
2023/11/06 07:19:00;;;;;;;3.13;1.10;;;9.80;99.90;;;;;;5055917;28;20175;-73
2023/11/06 07:21:26;;;;;;;1.30;0.70;;;9.90;99.90;;;;;;5056001;28;20644;-73
2023/11/06 07:23:51;;;;;;;1.73;0.80;;;9.90;99.90;;;;;;5054557;28;20652;-73
2023/11/06 07:26:17;;;;;;;1.67;0.70;;;9.90;99.90;;;;;;5055703;28;20581;-72
2023/11/06 07:28:44;;;;;;;1.50;0.90;;;9.90;99.90;;;;;;5055847;28;20528;-72
2023/11/06 07:31:09;;;;;;;1.60;0.80;;;9.90;99.90;;;;;;5055842;28;20183;-72
2023/11/06 07:33:35;;;;;;;1.43;0.80;;;9.80;99.90;;;;;;5055879;28;20432;-73
2023/11/06 07:36:01;;;;;;;2.03;0.97;;;9.90;99.90;;;;;;5058693;28;20191;-73
2023/11/06 07:38:26;;;;;;;1.40;0.83;;;9.90;99.90;;;;;;5053845;28;20224;-73
2023/11/06 07:40:52;;;;;;;3.70;1.00;;;9.90;99.90;;;;;;5055714;28;20243;-73
2023/11/06 07:43:17;;;;;;;2.43;0.93;;;10.10;99.90;;;;;;5055850;28;20664;-74
2023/11/06 07:45:43;;;;;;;1.10;0.80;;;10.20;99.90;;;;;;5056121;28;20199;-74
2023/11/06 07:48:08;;;;;;;2.73;1.03;;;10.40;99.90;;;;;;5054863;28;20224;-74
2023/11/06 07:50:34;;;;;;;1.00;0.77;;;10.50;99.90;;;;;;5055441;28;20562;-74
2023/11/06 07:53:00;;;;;;;2.40;0.80;;;10.50;99.90;;;;;;5055187;28;20164;-74
2023/11/06 07:55:26;;;;;;;2.33;1.17;;;10.60;99.90;;;;;;5055338;28;20557;-74
2023/11/06 07:57:52;;;;;;;3.17;1.17;;;10.70;99.90;;;;;;5054618;28;20408;-74
2023/11/06 08:00:18;;;;;;;2.03;0.90;;;10.60;99.90;;;;;;5055445;28;20170;-74
2023/11/06 08:02:43;;;;;;;1.33;1.10;;;10.80;99.90;;;;;;5054908;28;20427;-74
2023/11/06 08:05:09;;;;;;;2.30;1.40;;;10.70;99.90;;;;;;5055419;28;20175;-73
2023/11/06 08:07:36;;;;;;;2.40;1.40;;;10.70;99.90;;;;;;5054879;28;20198;-73
2023/11/06 08:10:03;;;;;;;2.33;0.90;;;10.80;99.90;;;;;;5053462;28;20412;-73
2023/11/06 08:12:29;;;;;;;2.07;1.00;;;10.80;99.90;;;;;;5053368;28;20410;-73
2023/11/06 08:14:55;;;;;;;2.50;1.10;;;10.90;99.90;;;;;;5054932;28;20409;-74
2023/11/06 08:17:21;;;;;;;3.40;1.20;;;10.90;99.90;;;;;;5053872;28;20797;-73
2023/11/06 08:19:47;;;;;;;4.40;0.90;;;10.90;99.90;;;;;;5054958;28;20163;-74
2023/11/06 08:22:12;;;;;;;3.03;0.87;;;10.90;99.90;;;;;;5054753;28;20405;-74
2023/11/06 08:24:38;;;;;;;4.67;1.60;;;10.90;99.90;;;;;;5054521;28;20189;-74
2023/11/06 08:27:04;;;;;;;1.67;1.00;;;11.10;99.90;;;;;;5073484;22;20260;-72
2023/11/06 08:29:30;;;;;;;3.93;1.23;;;11.20;99.90;;;;;;5054784;28;20273;-73
2023/11/06 08:31:59;;;;;;;2.67;1.20;;;11.20;99.90;;;;;;5054487;28;20959;-71
2023/11/06 08:34:25;;;;;;;2.77;1.20;;;11.30;99.90;;;;;;5053123;28;20163;-73
2023/11/06 08:36:50;;;;;;;7.20;1.70;;;11.40;99.90;;;;;;5049263;28;20421;-72
2023/11/06 08:39:17;;;;;;;8.53;1.60;;;11.40;99.90;;;;;;5034381;28;20405;-71
2023/11/06 08:41:46;;;;;;;2.50;1.20;;;11.50;99.90;;;;;;5034635;28;20183;-72
2023/11/06 08:44:11;;;;;;;3.10;0.90;;;11.40;99.90;;;;;;5034623;28;20893;-72
2023/11/06 08:46:37;;;;;;;3.93;1.20;;;11.50;99.90;;;;;;5037322;28;20453;-72
2023/11/06 08:49:02;;;;;;;1.67;0.93;;;11.50;99.90;;;;;;5054262;28;20178;-72
2023/11/06 08:51:31;;;;;;;1.97;0.80;;;11.60;99.90;;;;;;5052943;28;20206;-72
2023/11/06 08:53:57;;;;;;;3.27;1.20;;;11.50;99.90;;;;;;5051873;28;20213;-73
2023/11/06 08:56:23;;;;;;;1.40;0.80;;;11.60;99.90;;;;;;5034822;28;20437;-72
2023/11/06 08:58:50;;;;;;;1.63;0.90;;;11.80;99.90;;;;;;5054091;28;20406;-71
2023/11/06 09:01:15;;;;;;;1.50;1.00;;;12.00;99.90;;;;;;5054112;28;20435;-72
2023/11/06 09:03:41;;;;;;;1.53;0.80;;;12.10;99.90;;;;;;5054147;28;20759;-72
2023/11/06 09:06:10;;;;;;;1.87;0.97;;;12.30;99.90;;;;;;5053701;28;20966;-71
2023/11/06 09:08:35;;;;;;;2.00;1.00;;;12.50;99.90;;;;;;5034941;28;20638;-72
2023/11/06 09:11:01;;;;;;;1.97;0.90;;;12.40;99.90;;;;;;5033848;28;20460;-71
2023/11/06 09:13:28;;;;;;;3.57;1.13;;;12.60;99.90;;;;;;5034113;28;20168;-72
2023/11/06 09:15:53;;;;;;;2.60;1.00;;;12.60;99.90;;;;;;5033720;28;20242;-72
2023/11/06 09:18:19;;;;;;;4.50;1.30;;;12.50;99.90;;;;;;5050453;28;20454;-72
2023/11/06 09:20:48;;;;;;;7.33;1.53;;;12.80;99.90;;;;;;5053567;28;20162;-72
2023/11/06 09:23:14;;;;;;;1.87;1.13;;;13.10;99.90;;;;;;5053653;28;20723;-73
2023/11/06 09:25:40;;;;;;;1.63;0.83;;;12.90;99.90;;;;;;5053732;28;20503;-72
2023/11/06 09:28:06;;;;;;;2.33;1.43;;;12.80;99.90;;;;;;5038663;28;20218;-73
2023/11/06 09:30:31;;;;;;;3.53;1.07;;;12.60;99.90;;;;;;5033359;28;20449;-73
2023/11/06 09:32:59;;;;;;;4.10;2.00;;;12.50;99.90;;;;;;5033497;28;20202;-72
2023/11/06 09:35:25;;;;;;;2.47;1.40;;;12.40;99.90;;;;;;5033618;28;20719;-72
2023/11/06 09:37:50;;;;;;;2.40;1.23;;;12.50;99.90;;;;;;5045475;28;20516;-72
2023/11/06 09:40:21;;;;;;;4.67;2.17;;;12.50;99.90;;;;;;5053202;28;20164;-71
2023/11/06 09:42:47;;;;;;;1.70;1.00;;;12.50;99.90;;;;;;5053510;28;20527;-71
2023/11/06 09:45:13;;;;;;;3.00;0.90;;;12.80;99.90;;;;;;5053195;28;20399;-72
2023/11/06 09:47:49;;;;;;;2.40;1.17;;;13.00;99.90;;;;;;5042864;28;20520;-72
2023/11/06 09:50:18;;;;;;;2.50;1.30;;;12.80;99.90;;;;;;5033366;28;20156;-72
2023/11/06 09:52:52;;;;;;;1.93;1.00;;;12.80;99.90;;;;;;5033413;28;20416;-73
2023/11/06 09:55:18;;;;;;;1.90;1.10;;;12.80;99.90;;;;;;5033776;28;20460;-73
2023/11/06 09:57:48;;;;;;;3.53;0.80;;;12.90;99.90;;;;;;5042752;28;20471;-73
2023/11/06 10:00:16;;;;;;;4.00;1.30;;;12.80;99.90;;;;;;5047449;28;20409;-74
2023/11/06 10:02:43;;;;;;;3.67;1.30;;;13.00;99.90;;;;;;5032611;28;20907;-71
2023/11/06 10:05:14;;;;;;;1.80;1.13;;;13.00;99.90;;;;;;5033263;28;20535;-71
2023/11/06 10:07:52;;;;;;;1.40;1.00;;;13.10;99.90;;;;;;5038914;28;20433;-71
2023/11/06 10:10:19;;;;;;;9.00;2.10;;;13.10;99.90;;;;;;5033078;28;20850;-71
2023/11/06 10:13:00;;;;;;;3.70;1.20;;;13.20;99.90;;;;;;5033111;28;20516;-72
2023/11/06 10:15:25;;;;;;;1.33;0.87;;;13.30;99.90;;;;;;5032853;28;20389;-70
2023/11/06 10:17:51;;;;;;;3.73;1.10;;;13.20;99.90;;;;;;5044586;28;20447;-71
2023/11/06 10:20:17;;;;;;;2.30;1.00;;;13.20;99.90;;;;;;5052970;28;20591;-71
2023/11/06 10:22:56;;;;;;;3.43;1.03;;;13.40;99.90;;;;;;5053186;28;20201;-72
2023/11/06 10:25:29;;;;;;;2.97;0.90;;;13.70;99.90;;;;;;5052824;28;20429;-72
2023/11/06 10:27:56;;;;;;;2.23;1.07;;;13.80;99.90;;;;;;5040402;28;20446;-72
2023/11/06 10:30:23;;;;;;;3.33;1.17;;;13.80;99.90;;;;;;5032828;28;20506;-72
2023/11/06 10:32:48;;;;;;;1.87;0.80;;;13.70;99.90;;;;;;5032915;28;20903;-71
2023/11/06 10:35:15;;;;;;;3.13;1.17;;;13.60;99.90;;;;;;5032676;28;20419;-72
2023/11/06 10:37:42;;;;;;;2.37;1.00;;;13.90;99.90;;;;;;5042466;28;20252;-71
2023/11/06 10:40:18;;;;;;;2.47;0.93;;;14.00;99.90;;;;;;5051147;28;20406;-71
2023/11/06 10:42:46;;;;;;;1.63;1.10;;;14.30;99.90;;;;;;5051127;28;20492;-72
2023/11/06 10:45:14;;;;;;;3.03;0.83;;;14.40;99.90;;;;;;5052688;28;20400;-73
2023/11/06 10:47:52;;;;;;;3.27;1.10;;;14.70;99.90;;;;;;5042672;28;20888;-72
2023/11/06 10:50:24;;;;;;;3.33;1.10;;;16.80;99.90;;;;;;5033280;28;20887;-72
2023/11/06 10:52:53;;;;;;;1.97;0.80;;;19.10;99.90;;;;;;5032534;28;20485;-71
2023/11/06 10:55:22;;;;;;;1.17;0.83;;;20.20;99.40;;;;;;5032416;28;20437;-72
2023/11/06 10:57:51;;;;;;;1.40;0.80;;;19.60;99.00;;;;;;5042866;28;20443;-71
2023/11/06 11:00:19;;;;;;;1.30;0.80;;;20.30;98.00;;;;;;5052552;28;20422;-71
2023/11/06 11:02:55;;;;;;;3.27;0.80;;;19.70;98.30;;;;;;5049054;28;20522;-71
2023/11/06 11:05:24;;;;;;;2.73;0.93;;;18.30;98.90;;;;;;5052265;28;20415;-71
2023/11/06 11:07:53;;;;;;;2.87;1.07;;;17.60;99.90;;;;;;5041647;28;20444;-72
2023/11/06 11:10:22;;;;;;;3.53;0.90;;;16.70;99.90;;;;;;5031629;28;20434;-72
2023/11/06 11:12:51;;;;;;;2.67;0.90;;;16.30;99.90;;;;;;5032297;28;20410;-72
2023/11/06 11:15:27;;;;;;;1.10;0.60;;;16.40;99.90;;;;;;5035697;28;20429;-73
2023/11/06 11:17:57;;;;;;;2.83;0.87;;;16.50;99.90;;;;;;5035746;28;20421;-73
2023/11/06 11:20:23;;;;;;;1.17;0.70;;;16.50;99.90;;;;;;5052371;28;20408;-73
2023/11/06 11:23:10;;;;;;;1.53;0.70;;;16.10;99.90;;;;;;5056083;28;20852;-72
2023/11/06 11:25:59;;;;;;;1.70;0.70;;;16.10;99.90;;;;;;5054330;28;20559;-73
2023/11/06 11:28:26;;;;;;;1.90;0.80;;;15.70;99.90;;;;;;5054186;28;20405;-72
2023/11/06 11:31:12;;;;;;;2.03;1.10;;;15.90;99.90;;;;;;5055005;28;20787;-72
2023/11/06 11:33:55;;;;;;;1.73;0.93;;;15.50;99.90;;;;;;5055323;28;20428;-71
2023/11/06 11:36:31;;;;;;;1.33;0.70;;;14.90;99.90;;;;;;5055670;28;20423;-71
2023/11/06 11:38:58;;;;;;;2.07;0.70;;;14.90;99.90;;;;;;5052114;28;20466;-71
2023/11/06 11:41:24;;;;;;;1.10;0.70;;;14.80;99.90;;;;;;5035666;28;20409;-73
2023/11/06 11:44:10;;;;;;;1.43;0.70;;;15.10;99.90;;;;;;5035693;28;20428;-72
2023/11/06 11:46:39;;;;;;;1.13;0.60;;;15.70;99.90;;;;;;5035896;28;20612;-72
2023/11/06 11:49:05;;;;;;;1.50;0.70;;;16.20;99.90;;;;;;5039902;28;20431;-72
2023/11/06 11:51:51;;;;;;;1.70;1.00;;;16.20;99.90;;;;;;5055128;28;20444;-73
2023/11/06 11:54:27;;;;;;;1.93;0.80;;;16.10;99.90;;;;;;5040495;28;20198;-72
2023/11/06 11:56:52;;;;;;;1.63;0.90;;;15.70;99.90;;;;;;5035223;28;20850;-72
2023/11/06 11:59:18;;;;;;;2.30;1.10;;;15.60;99.90;;;;;;5041042;28;20484;-72
2023/11/06 12:01:45;;;;;;;3.27;1.17;;;16.10;99.90;;;;;;5055144;28;20483;-73
2023/11/06 12:04:37;;;;;;;0.80;0.60;;;16.30;99.90;;;;;;5055130;28;20182;-73
2023/11/06 12:07:06;;;;;;;3.40;0.90;;;16.40;99.90;;;;;;5053987;28;20436;-72
2023/11/06 12:09:48;;;;;;;3.03;0.83;;;16.00;99.90;;;;;;5047731;28;20625;-73
2023/11/06 12:12:22;;;;;;;2.40;0.87;;;15.90;99.90;;;;;;5035442;28;20444;-72
2023/11/06 12:14:48;;;;;;;1.87;0.80;;;16.20;99.90;;;;;;5041523;28;20417;-72
2023/11/06 12:17:34;;;;;;;1.00;0.60;;;16.30;99.90;;;;;;5054839;28;20432;-72
2023/11/06 12:20:01;;;;;;;0.80;0.50;;;15.90;99.90;;;;;;5043757;28;20770;-73
2023/11/06 12:22:31;;;;;;;1.30;0.60;;;15.80;99.90;;;;;;5035324;28;20406;-73
2023/11/06 12:24:57;;;;;;;1.47;0.67;;;15.80;99.90;;;;;;5034615;28;20406;-71
2023/11/06 12:27:33;;;;;;;1.20;0.50;;;15.80;99.90;;;;;;5034634;28;20457;-71
2023/11/06 12:30:01;;;;;;;1.60;0.70;;;15.90;99.90;;;;;;5046032;28;20420;-72
2023/11/06 12:32:28;;;;;;;1.03;0.60;;;15.70;99.90;;;;;;5055202;28;20460;-72
2023/11/06 12:35:12;;;;;;;1.97;0.67;;;15.40;99.90;;;;;;5054496;28;20490;-73
2023/11/06 12:37:54;;;;;;;1.13;0.60;;;15.00;99.90;;;;;;5054620;28;20434;-71
2023/11/06 12:40:27;;;;;;;3.53;0.70;;;14.80;99.90;;;;;;5040514;28;20411;-72
2023/11/06 12:42:56;;;;;;;1.00;0.60;;;14.80;99.90;;;;;;5034314;28;21085;-71
2023/11/06 12:45:25;;;;;;;1.33;0.80;;;14.60;99.90;;;;;;5034551;28;20411;-73
2023/11/06 12:47:52;;;;;;;1.90;0.60;;;14.50;99.90;;;;;;5034375;28;20423;-72
2023/11/06 12:50:18;;;;;;;1.67;0.80;;;14.60;99.90;;;;;;5047671;28;20417;-73